createdAt,value
2022-12-26T00:00:38.231Z,100827.50
2022-12-26T00:03:05.127Z,100833.81
2022-12-26T00:05:37.146Z,100832.34
2022-12-26T00:08:04.651Z,100838.84
2022-12-26T00:10:31.301Z,100841.63
2022-12-26T00:13:38.656Z,100857.13
2022-12-26T00:15:45.327Z,100862.00
2022-12-26T00:18:11.978Z,100855.16
2022-12-26T00:20:38.724Z,100860.66
2022-12-26T00:23:05.383Z,100860.38
2022-12-26T00:25:34.449Z,100861.66
2022-12-26T00:28:01.520Z,100867.84
2022-12-26T00:30:28.511Z,100870.47
2022-12-26T00:32:55.688Z,100864.16
2022-12-26T00:35:22.954Z,100875.94
2022-12-26T00:37:49.673Z,100860.88
2022-12-26T00:40:18.693Z,100861.25
2022-12-26T00:42:45.525Z,100863.69
2022-12-26T00:45:12.295Z,100867.91
2022-12-26T00:47:38.999Z,100869.25
2022-12-26T00:50:14.649Z,100872.06
2022-12-26T00:52:43.011Z,100875.63
2022-12-26T00:55:10.322Z,100874.38
2022-12-26T00:57:39.601Z,100874.66
2022-12-26T01:00:07.154Z,100877.59
2022-12-26T01:02:40.090Z,100859.16
2022-12-26T01:05:09.141Z,100872.19
2022-12-26T01:08:22.342Z,100871.94
2022-12-26T01:10:23.888Z,100885.84
2022-12-26T01:12:50.885Z,100885.47
2022-12-26T01:15:18.020Z,100889.84
2022-12-26T01:17:46.513Z,100892.47
2022-12-26T01:20:13.242Z,100889.19
2022-12-26T01:22:39.898Z,100876.09
2022-12-26T01:25:07.255Z,100881.78
2022-12-26T01:27:33.909Z,100879.16
2022-12-26T01:30:01.176Z,100881.25
2022-12-26T01:32:27.920Z,100877.78
2022-12-26T01:34:55.586Z,100877.59
2022-12-26T01:37:25.665Z,100866.53
2022-12-26T01:39:53.125Z,100878.44
2022-12-26T01:42:23.619Z,100880.84
2022-12-26T01:45:29.014Z,100886.88
2022-12-26T01:48:03.613Z,100879.69
2022-12-26T01:51:06.548Z,100876.91
2022-12-26T01:54:37.655Z,100877.88
2022-12-26T01:56:46.274Z,100884.56
2022-12-26T01:59:19.253Z,100868.09
2022-12-26T02:01:48.458Z,100886.66
2022-12-26T02:04:41.457Z,100886.66
2022-12-26T02:07:08.497Z,100894.31
2022-12-26T02:09:36.061Z,100893.03
2022-12-26T02:12:36.676Z,100890.06
2022-12-26T02:15:02.948Z,100897.09
2022-12-26T02:17:30.171Z,100885.84
2022-12-26T02:20:28.559Z,100892.44
2022-12-26T02:23:42.089Z,100886.94
2022-12-26T02:26:42.533Z,100898.84
2022-12-26T02:29:34.212Z,100893.44
2022-12-26T02:32:03.778Z,100899.31
2022-12-26T02:34:40.369Z,100893.44
2022-12-26T02:37:13.491Z,100886.88
2022-12-26T02:39:54.169Z,100879.47
2022-12-26T02:42:41.204Z,100885.72
2022-12-26T02:45:38.851Z,100902.84
2022-12-26T02:48:28.735Z,100895.19
2022-12-26T02:51:40.431Z,100897.63
2022-12-26T02:54:44.151Z,100908.72
2022-12-26T02:57:38.150Z,100904.00
2022-12-26T03:00:38.813Z,100908.19
2022-12-26T03:03:44.796Z,100891.25
2022-12-26T03:06:35.345Z,100887.50
2022-12-26T03:09:29.048Z,100875.88
2022-12-26T03:12:45.613Z,100885.50
2022-12-26T03:15:16.786Z,100897.75
2022-12-26T03:17:49.742Z,100894.03
2022-12-26T03:20:33.408Z,100904.13
2022-12-26T03:23:06.277Z,100899.94
2022-12-26T03:25:54.889Z,100876.84
2022-12-26T03:28:23.091Z,100868.53
2022-12-26T03:30:50.499Z,100869.53
2022-12-26T03:33:48.077Z,100876.88
2022-12-26T03:36:37.714Z,100870.06
2022-12-26T03:39:13.699Z,100875.94
2022-12-26T03:42:18.491Z,100877.22
2022-12-26T03:45:15.929Z,100879.53
2022-12-26T03:48:11.128Z,100874.66
2022-12-26T03:51:01.310Z,100891.09
2022-12-26T03:53:59.447Z,100911.13
2022-12-26T03:56:53.784Z,100900.06
2022-12-26T03:59:43.973Z,100908.34
2022-12-26T04:02:32.505Z,100909.47
2022-12-26T04:05:21.592Z,100906.41
2022-12-26T04:08:18.036Z,100924.94
2022-12-26T04:11:09.883Z,100918.28
2022-12-26T04:14:09.298Z,100933.94
2022-12-26T04:16:59.577Z,100936.19
2022-12-26T04:20:20.871Z,100936.81
2022-12-26T04:23:16.873Z,100929.34
2022-12-26T04:26:17.423Z,100929.84
2022-12-26T04:29:02.831Z,100924.00
2022-12-26T04:32:06.702Z,100919.25
2022-12-26T04:35:09.854Z,100919.28
2022-12-26T04:38:01.846Z,100915.50
2022-12-26T04:40:53.056Z,100906.72
2022-12-26T04:43:46.830Z,100902.81
2022-12-26T04:46:19.681Z,100892.22
2022-12-26T04:49:08.954Z,100899.41
2022-12-26T04:51:35.938Z,100898.41
2022-12-26T04:54:03.080Z,100888.66
2022-12-26T04:56:30.245Z,100880.34
2022-12-26T04:58:57.472Z,100892.56
2022-12-26T05:01:42.935Z,100895.63
2022-12-26T05:04:36.389Z,100896.13
2022-12-26T05:07:24.326Z,100900.38
2022-12-26T05:09:53.445Z,100906.25
2022-12-26T05:12:21.037Z,100899.56
2022-12-26T05:14:47.755Z,100911.94
2022-12-26T05:17:33.520Z,100915.50
2022-12-26T05:20:38.611Z,100911.78
2022-12-26T05:23:33.695Z,100910.16
2022-12-26T05:26:19.517Z,100912.94
2022-12-26T05:28:53.284Z,100901.56
2022-12-26T05:31:19.997Z,100904.97
2022-12-26T05:34:05.336Z,100891.59
2022-12-26T05:36:55.301Z,100904.94
2022-12-26T05:39:22.180Z,100895.00
2022-12-26T05:41:48.904Z,100885.72
2022-12-26T05:44:15.609Z,100890.63
2022-12-26T05:46:42.681Z,100887.38
2022-12-26T05:49:10.165Z,100869.31
2022-12-26T05:51:36.765Z,100871.59
2022-12-26T05:54:04.184Z,100874.03
2022-12-26T05:56:31.008Z,100874.69
2022-12-26T05:59:01.496Z,100876.00
2022-12-26T06:01:30.449Z,100878.25
2022-12-26T06:03:59.697Z,100882.50
2022-12-26T06:06:27.509Z,100884.28
2022-12-26T06:08:55.653Z,100882.00
2022-12-26T06:11:25.800Z,100900.06
2022-12-26T06:13:53.216Z,100904.78
2022-12-26T06:16:20.783Z,100888.38
2022-12-26T06:18:48.967Z,100909.53
2022-12-26T06:21:18.458Z,100912.78
2022-12-26T06:23:45.735Z,100918.16
2022-12-26T06:26:12.966Z,100917.34
2022-12-26T06:28:43.205Z,100918.97
2022-12-26T06:31:21.288Z,100916.03
2022-12-26T06:33:58.102Z,100919.63
2022-12-26T06:36:28.196Z,100925.16
2022-12-26T06:38:59.422Z,100910.19
2022-12-26T06:41:26.228Z,100923.69
2022-12-26T06:43:53.540Z,100919.81
2022-12-26T06:46:22.821Z,100904.66
2022-12-26T06:48:49.938Z,100906.75
2022-12-26T06:51:20.557Z,100920.09
2022-12-26T06:53:47.739Z,100914.91
2022-12-26T06:56:16.030Z,100912.16
2022-12-26T06:58:43.141Z,100898.47
2022-12-26T07:01:16.505Z,100922.88
2022-12-26T07:03:50.733Z,100914.09
2022-12-26T07:06:31.717Z,100921.91
2022-12-26T07:09:01.084Z,100924.50
2022-12-26T07:11:32.962Z,100920.59
2022-12-26T07:14:00.339Z,100916.50
2022-12-26T07:16:27.679Z,100914.22
2022-12-26T07:18:57.807Z,100917.69
2022-12-26T07:21:25.959Z,100922.38
2022-12-26T07:23:54.640Z,100923.84
2022-12-26T07:26:22.694Z,100947.13
2022-12-26T07:28:49.370Z,100930.19
2022-12-26T07:31:20.674Z,100940.44
2022-12-26T07:33:50.900Z,100947.94
2022-12-26T07:36:20.000Z,100945.03
2022-12-26T07:38:47.153Z,100947.78
2022-12-26T07:41:33.729Z,100955.28
2022-12-26T07:44:01.136Z,100945.16
2022-12-26T07:46:27.969Z,100943.03
2022-12-26T07:48:54.951Z,100948.44
2022-12-26T07:51:21.707Z,100951.34
2022-12-26T07:53:49.057Z,100956.72
2022-12-26T07:56:16.272Z,100951.84
2022-12-26T07:58:42.960Z,100939.78
2022-12-26T08:01:10.114Z,100947.94
2022-12-26T08:03:37.204Z,100946.63
2022-12-26T08:06:04.624Z,100945.94
2022-12-26T08:08:31.439Z,100934.53
2022-12-26T08:11:00.375Z,100950.78
2022-12-26T08:13:29.007Z,100952.38
2022-12-26T08:15:56.371Z,100949.78
2022-12-26T08:18:24.067Z,100959.72
2022-12-26T08:20:50.991Z,100966.38
2022-12-26T08:23:18.077Z,100972.53
2022-12-26T08:25:44.735Z,100972.41
2022-12-26T08:28:11.624Z,100969.28
2022-12-26T08:30:41.661Z,100980.00
2022-12-26T08:33:10.672Z,100979.34
2022-12-26T08:35:38.317Z,100979.78
2022-12-26T08:38:05.258Z,100985.59
2022-12-26T08:40:43.117Z,100984.28
2022-12-26T08:46:03.615Z,100980.78
2022-12-26T08:48:31.026Z,100987.75
2022-12-26T08:51:00.116Z,100986.59
2022-12-26T08:53:32.612Z,100980.16
2022-12-26T08:56:00.151Z,100987.56
2022-12-26T08:58:28.365Z,100997.16
2022-12-26T09:00:55.777Z,100990.97
2022-12-26T09:03:23.197Z,100986.91
2022-12-26T09:05:51.018Z,101000.84
2022-12-26T09:08:17.648Z,100998.25
2022-12-26T09:10:44.281Z,101011.59
2022-12-26T09:13:10.833Z,101011.25
2022-12-26T09:15:38.471Z,101022.34
2022-12-26T09:18:05.517Z,101017.44
2022-12-26T09:20:32.965Z,101026.84
2022-12-26T09:22:59.633Z,101023.25
2022-12-26T09:25:26.806Z,101033.50
2022-12-26T09:27:59.182Z,101041.25
2022-12-26T09:30:26.806Z,101034.47
2022-12-26T09:32:54.008Z,101048.50
2022-12-26T09:35:21.273Z,101036.50
2022-12-26T09:37:47.986Z,101052.00
2022-12-26T09:40:22.755Z,101063.72
2022-12-26T09:43:32.874Z,101051.22
2022-12-26T09:46:16.118Z,101064.38
2022-12-26T09:48:57.906Z,101067.56
2022-12-26T09:51:26.904Z,101082.72
2022-12-26T09:53:54.719Z,101082.50
2022-12-26T09:59:31.072Z,101067.16
2022-12-26T10:01:57.977Z,101074.59
2022-12-26T10:04:30.032Z,101087.72
2022-12-26T10:07:13.617Z,101103.47
2022-12-26T10:10:02.388Z,101134.06
2022-12-26T10:12:50.721Z,101146.78
2022-12-26T10:15:38.929Z,101156.28
2022-12-26T10:18:34.060Z,101166.34
2022-12-26T10:21:42.972Z,101167.50
2022-12-26T10:24:20.407Z,101173.03
2022-12-26T10:26:57.571Z,101167.50
2022-12-26T10:29:36.990Z,101164.22
2022-12-26T10:32:27.547Z,101172.88
2022-12-26T10:34:55.267Z,101173.50
2022-12-26T10:37:35.506Z,101188.19
2022-12-26T10:40:22.144Z,101197.63
2022-12-26T10:42:53.819Z,101215.19
2022-12-26T10:45:42.008Z,101220.41
2022-12-26T10:48:13.473Z,101222.78
2022-12-26T10:50:47.459Z,101235.50
2022-12-26T10:53:16.462Z,101242.94
2022-12-26T10:55:44.525Z,101249.47
2022-12-26T10:58:27.622Z,101246.84
2022-12-26T11:00:54.616Z,101251.84
2022-12-26T11:03:21.832Z,101242.53
2022-12-26T11:06:12.106Z,101246.00
2022-12-26T11:08:47.367Z,101241.94
2022-12-26T11:11:21.305Z,101249.91
2022-12-26T11:14:02.120Z,101255.78
2022-12-26T11:16:33.877Z,101270.88
2022-12-26T11:19:01.681Z,101267.94
2022-12-26T11:21:30.544Z,101267.25
2022-12-26T11:24:09.502Z,101267.00
2022-12-26T11:26:38.528Z,101275.75
2022-12-26T11:29:27.478Z,101284.22
2022-12-26T11:31:59.983Z,101286.34
2022-12-26T11:34:38.569Z,101288.94
2022-12-26T11:37:06.942Z,101280.84
2022-12-26T11:39:37.225Z,101285.38
2022-12-26T11:42:21.179Z,101280.28
2022-12-26T11:44:52.740Z,101291.50
2022-12-26T11:47:22.405Z,101296.47
2022-12-26T11:49:55.270Z,101296.72
2022-12-26T11:52:30.998Z,101307.72
2022-12-26T11:54:57.790Z,101304.09
2022-12-26T11:57:30.847Z,101307.19
2022-12-26T12:00:20.259Z,101312.00
2022-12-26T12:02:47.012Z,101307.53
2022-12-26T12:05:20.711Z,101308.84
2022-12-26T12:08:06.418Z,101312.38
2022-12-26T12:10:39.081Z,101309.09
2022-12-26T12:13:25.481Z,101320.72
2022-12-26T12:16:11.474Z,101326.59
2022-12-26T12:18:38.274Z,101314.81
2022-12-26T12:21:36.921Z,101321.09
2022-12-26T12:24:27.427Z,101313.06
2022-12-26T12:27:04.889Z,101329.84
2022-12-26T12:30:01.211Z,101338.81
2022-12-26T12:32:56.725Z,101347.25
2022-12-26T12:35:35.981Z,101358.41
2022-12-26T12:38:14.271Z,101348.59
2022-12-26T12:40:56.411Z,101346.06
2022-12-26T12:43:42.069Z,101345.03
2022-12-26T12:46:37.740Z,101347.94
2022-12-26T12:49:13.656Z,101357.16
2022-12-26T12:52:05.184Z,101349.50
2022-12-26T12:55:10.323Z,101357.22
2022-12-26T12:58:04.844Z,101356.34
2022-12-26T13:00:42.619Z,101358.47
2022-12-26T13:03:24.483Z,101361.22
2022-12-26T13:06:10.330Z,101369.03
2022-12-26T13:08:50.785Z,101374.09
2022-12-26T13:11:30.084Z,101356.16
2022-12-26T13:14:03.178Z,101352.38
2022-12-26T13:16:43.709Z,101348.34
2022-12-26T13:19:19.227Z,101345.50
2022-12-26T13:21:48.401Z,101358.03
2022-12-26T13:24:32.996Z,101359.41
2022-12-26T13:27:16.011Z,101366.56
2022-12-26T13:29:47.490Z,101370.03
2022-12-26T13:32:20.046Z,101378.38
2022-12-26T13:34:47.835Z,101377.44
2022-12-26T13:37:54.891Z,101377.34
2022-12-26T13:40:29.149Z,101383.47
2022-12-26T13:43:26.029Z,101382.13
2022-12-26T13:45:56.437Z,101384.78
2022-12-26T13:48:26.143Z,101395.72
2022-12-26T13:51:01.997Z,101394.34
2022-12-26T13:53:37.288Z,101409.38
2022-12-26T13:56:24.218Z,101415.31
2022-12-26T13:59:02.472Z,101414.75
2022-12-26T14:02:01.420Z,101416.25
2022-12-26T14:04:56.250Z,101419.28
2022-12-26T14:07:40.145Z,101425.00
2022-12-26T14:10:40.915Z,101424.16
2022-12-26T14:13:26.203Z,101416.25
2022-12-26T14:16:00.338Z,101427.72
2022-12-26T14:18:44.467Z,101432.25
2022-12-26T14:21:29.836Z,101441.09
2022-12-26T14:24:09.179Z,101435.22
2022-12-26T14:27:20.441Z,101440.56
2022-12-26T14:30:15.224Z,101453.94
2022-12-26T14:32:58.180Z,101451.22
2022-12-26T14:35:56.213Z,101458.88
2022-12-26T14:38:35.244Z,101456.69
2022-12-26T14:41:34.932Z,101457.22
2022-12-26T14:44:16.968Z,101466.78
2022-12-26T14:46:43.583Z,101481.78
2022-12-26T14:49:35.720Z,101474.78
2022-12-26T14:52:24.739Z,101486.25
2022-12-26T14:54:52.873Z,101496.91
2022-12-26T14:57:38.050Z,101507.56
2022-12-26T15:00:16.179Z,101519.97
2022-12-26T15:03:06.791Z,101524.69
2022-12-26T15:05:37.761Z,101532.19
2022-12-26T15:08:23.517Z,101552.47
2022-12-26T15:11:16.350Z,101545.81
2022-12-26T15:13:54.996Z,101547.72
2022-12-26T15:16:40.951Z,101543.56
2022-12-26T15:19:58.807Z,101544.34
2022-12-26T15:22:57.439Z,101542.13
2022-12-26T15:25:50.899Z,101555.72
2022-12-26T15:28:23.456Z,101548.84
2022-12-26T15:31:19.407Z,101553.63
2022-12-26T15:34:20.497Z,101558.28
2022-12-26T15:37:05.627Z,101567.94
2022-12-26T15:39:38.506Z,101569.72
2022-12-26T15:42:28.346Z,101573.81
2022-12-26T15:45:13.759Z,101582.47
2022-12-26T15:47:40.468Z,101578.66
2022-12-26T15:50:07.596Z,101578.16
2022-12-26T15:53:19.537Z,101589.81
2022-12-26T15:55:55.449Z,101588.09
2022-12-26T15:58:51.636Z,101593.91
2022-12-26T16:01:39.479Z,101594.38
2022-12-26T16:04:28.960Z,101593.13
2022-12-26T16:07:14.263Z,101597.72
2022-12-26T16:09:49.960Z,101598.66
2022-12-26T16:12:32.638Z,101603.13
2022-12-26T16:15:11.565Z,101612.66
2022-12-26T16:17:42.149Z,101603.13
2022-12-26T16:20:43.218Z,101618.25
2022-12-26T16:23:23.415Z,101618.84
2022-12-26T16:25:52.884Z,101638.28
2022-12-26T16:28:34.571Z,101629.41
2022-12-26T16:31:01.978Z,101632.91
2022-12-26T16:33:31.621Z,101633.97
2022-12-26T16:36:01.254Z,101639.47
2022-12-26T16:38:31.383Z,101635.69
2022-12-26T16:41:00.396Z,101635.22
2022-12-26T16:43:30.112Z,101639.22
2022-12-26T16:46:02.420Z,101643.00
2022-12-26T16:48:31.579Z,101642.66
2022-12-26T16:51:01.177Z,101642.66
2022-12-26T16:53:40.738Z,101643.03
2022-12-26T16:56:26.782Z,101638.28
2022-12-26T16:59:17.866Z,101638.09
2022-12-26T17:01:51.032Z,101639.50
2022-12-26T17:04:21.084Z,101644.44
2022-12-26T17:07:23.175Z,101645.19
2022-12-26T17:10:37.788Z,101646.63
2022-12-26T17:13:08.221Z,101655.69
2022-12-26T17:15:37.802Z,101649.22
2022-12-26T17:18:43.093Z,101652.50
2022-12-26T17:21:23.262Z,101654.34
2022-12-26T17:24:11.447Z,101663.06
2022-12-26T17:26:40.243Z,101674.28
2022-12-26T17:29:35.599Z,101673.25
2022-12-26T17:32:08.307Z,101672.44
2022-12-26T17:34:38.918Z,101673.59
2022-12-26T17:37:19.049Z,101665.63
2022-12-26T17:39:52.129Z,101661.72
2022-12-26T17:42:19.105Z,101675.88
2022-12-26T17:44:46.269Z,101684.47
2022-12-26T17:47:19.377Z,101679.19
2022-12-26T17:49:49.674Z,101692.09
2022-12-26T17:52:19.591Z,101691.31
2022-12-26T17:54:49.081Z,101687.47
2022-12-26T17:57:19.535Z,101677.91
2022-12-26T17:59:46.375Z,101693.41
2022-12-26T18:02:14.230Z,101698.69
2022-12-26T18:04:42.313Z,101699.22
2022-12-26T18:07:31.705Z,101716.91
2022-12-26T18:09:59.979Z,101725.56
2022-12-26T18:12:26.680Z,101717.31
2022-12-26T18:14:57.683Z,101722.31
2022-12-26T18:17:31.292Z,101726.63
2022-12-26T18:19:58.020Z,101731.59
2022-12-26T18:22:24.770Z,101734.28
2022-12-26T18:24:51.753Z,101734.91
2022-12-26T18:27:21.489Z,101737.19
2022-12-26T18:29:49.786Z,101740.91
2022-12-26T18:32:29.664Z,101746.16
2022-12-26T18:34:56.755Z,101751.84
2022-12-26T18:37:26.731Z,101757.22
2022-12-26T18:39:53.619Z,101762.38
2022-12-26T18:42:20.648Z,101773.31
2022-12-26T18:44:47.402Z,101771.69
2022-12-26T18:47:18.654Z,101779.41
2022-12-26T18:49:54.898Z,101779.41
2022-12-26T18:52:22.277Z,101783.09
2022-12-26T18:54:50.341Z,101787.25
2022-12-26T18:57:20.066Z,101797.88
2022-12-26T18:59:48.688Z,101793.66
2022-12-26T19:02:18.061Z,101791.19
2022-12-26T19:04:48.287Z,101799.22
2022-12-26T19:07:16.966Z,101790.44
2022-12-26T19:09:49.492Z,101792.78
2022-12-26T19:12:17.007Z,101790.13
2022-12-26T19:14:45.682Z,101794.47
2022-12-26T19:17:13.654Z,101795.34
2022-12-26T19:19:40.473Z,101794.22
2022-12-26T19:22:07.197Z,101813.03
2022-12-26T19:24:34.111Z,101812.25
2022-12-26T19:27:02.047Z,101818.25
2022-12-26T19:29:29.146Z,101822.63
2022-12-26T19:31:56.940Z,101820.56
2022-12-26T19:34:24.381Z,101822.41
2022-12-26T19:36:51.561Z,101827.78
2022-12-26T19:39:19.898Z,101825.72
2022-12-26T19:41:48.435Z,101838.41
2022-12-26T19:44:15.187Z,101829.22
2022-12-26T19:46:41.860Z,101845.75
2022-12-26T19:49:08.518Z,101839.94
2022-12-26T19:51:35.377Z,101847.28
2022-12-26T19:54:02.106Z,101851.88
2022-12-26T19:56:28.868Z,101842.63
2022-12-26T19:58:57.678Z,101847.56
2022-12-26T20:01:30.738Z,101840.50
2022-12-26T20:03:59.531Z,101842.38
2022-12-26T20:06:28.732Z,101839.59
2022-12-26T20:09:02.113Z,101839.13
2022-12-26T20:11:32.407Z,101840.34
2022-12-26T20:14:01.099Z,101841.63
2022-12-26T20:19:18.483Z,101832.13
2022-12-26T20:21:46.934Z,101835.03
2022-12-26T20:24:14.814Z,101836.69
2022-12-26T20:26:42.453Z,101848.03
2022-12-26T20:29:09.573Z,101850.50
2022-12-26T20:31:37.965Z,101853.44
2022-12-26T20:34:05.724Z,101857.56
2022-12-26T20:36:35.202Z,101868.47
2022-12-26T20:39:07.479Z,101864.56
2022-12-26T20:41:34.901Z,101866.13
2022-12-26T20:44:01.747Z,101864.56
2022-12-26T20:46:33.331Z,101853.63
2022-12-26T20:49:03.088Z,101853.41
2022-12-26T20:51:37.503Z,101869.75
2022-12-26T20:54:06.111Z,101865.50
2022-12-26T20:56:33.588Z,101870.97
2022-12-26T20:59:00.370Z,101869.31
2022-12-26T21:01:28.494Z,101874.97
2022-12-26T21:03:57.258Z,101881.28
2022-12-26T21:06:28.749Z,101878.59
2022-12-26T21:08:57.570Z,101887.47
2022-12-26T21:11:36.562Z,101891.81
2022-12-26T21:14:15.915Z,101891.50
2022-12-26T21:16:47.071Z,101893.22
2022-12-26T21:19:15.893Z,101900.88
2022-12-26T21:21:47.700Z,101900.72
2022-12-26T21:24:21.409Z,101904.31
2022-12-26T21:26:48.715Z,101896.03
2022-12-26T21:29:19.330Z,101898.03
2022-12-26T21:31:48.689Z,101903.38
2022-12-26T21:34:18.006Z,101899.44
2022-12-26T21:37:06.068Z,101906.88
2022-12-26T21:39:34.564Z,101911.94
2022-12-26T21:42:05.313Z,101919.38
2022-12-26T21:44:32.191Z,101904.72
2022-12-26T21:47:00.250Z,101914.50
2022-12-26T21:49:27.111Z,101916.38
2022-12-26T21:51:54.032Z,101925.25
2022-12-26T21:54:43.436Z,101927.13
2022-12-26T21:57:14.985Z,101936.59
2022-12-26T21:59:56.800Z,101927.50
2022-12-26T22:02:54.620Z,101928.75
2022-12-26T22:05:25.137Z,101930.94
2022-12-26T22:07:57.672Z,101947.75
2022-12-26T22:10:45.039Z,101943.63
2022-12-26T22:13:12.212Z,101945.06
2022-12-26T22:16:02.394Z,101926.00
2022-12-26T22:18:34.747Z,101947.34
2022-12-26T22:21:19.447Z,101960.06
2022-12-26T22:23:47.847Z,101962.81
2022-12-26T22:26:19.364Z,101966.84
2022-12-26T22:28:49.611Z,101969.25
2022-12-26T22:31:21.389Z,101959.00
2022-12-26T22:33:55.153Z,101984.59
2022-12-26T22:36:21.908Z,101977.38
2022-12-26T22:38:48.828Z,101973.63
2022-12-26T22:41:15.501Z,101978.63
2022-12-26T22:43:47.963Z,101982.56
2022-12-26T22:46:15.155Z,101973.34
2022-12-26T22:48:42.178Z,101983.28
2022-12-26T22:51:09.979Z,101976.78
2022-12-26T22:53:36.715Z,101983.91
2022-12-26T22:56:06.126Z,101971.91
2022-12-26T22:58:33.874Z,101973.19
2022-12-26T23:01:01.063Z,101983.00
2022-12-26T23:03:28.466Z,101965.72
2022-12-26T23:05:55.922Z,101987.66
2022-12-26T23:08:27.634Z,101996.53
2022-12-26T23:10:57.817Z,101989.47
2022-12-26T23:13:25.141Z,101993.78
2022-12-26T23:16:19.902Z,101988.63
2022-12-26T23:19:37.056Z,102004.75
2022-12-26T23:22:04.296Z,102003.00
2022-12-26T23:24:32.766Z,102002.47
2022-12-26T23:27:22.032Z,101996.78
2022-12-26T23:30:10.233Z,102007.13
2022-12-26T23:32:38.608Z,102013.38
2022-12-26T23:35:07.112Z,101994.88
2022-12-26T23:37:33.852Z,102000.13
2022-12-26T23:40:01.682Z,101996.44
2022-12-26T23:42:28.632Z,101996.00
2022-12-26T23:44:55.378Z,101996.31
2022-12-26T23:47:24.165Z,101997.94
2022-12-26T23:49:52.327Z,102008.78
2022-12-26T23:52:19.322Z,101997.22
2022-12-26T23:54:46.085Z,102006.22
2022-12-26T23:57:13.907Z,102000.06
2022-12-26T23:59:40.830Z,101991.41
